Time;durP1;ratioP1;P1;durP2;ratioP2;P2;SDS_P1;SDS_P2;PMS_P1;PMS_P2;Temp;Humidity;BMP_temperature;BMP_pressure;BME280_temperature;BME280_humidity;BME280_pressure;Samples;Min_cycle;Max_cycle;Signal;HPM_P1;HPM_P2
2022/01/03 00:01:23;;;;;;;31.95;2.85;;;;;;;;;;5058713;28;20538;-92
2022/01/03 00:03:49;;;;;;;21.60;2.63;;;;;;;;;;5069040;28;20039;-92
2022/01/03 00:06:14;;;;;;;32.03;3.97;;;;;;;;;;5077675;28;20051;-94
2022/01/03 00:08:41;;;;;;;27.95;4.25;;;;;;;;;;5078758;28;20058;-93
2022/01/03 00:11:06;;;;;;;26.98;3.40;;;;;;;;;;5056534;28;20063;-93
2022/01/03 00:13:32;;;;;;;21.10;2.65;;;;;;;;;;5057603;28;20024;-93
2022/01/03 00:15:57;;;;;;;26.75;4.43;;;;;;;;;;5076969;28;20101;-92
2022/01/03 00:18:23;;;;;;;28.08;3.35;;;;;;;;;;5096780;28;20035;-93
2022/01/03 00:20:57;;;;;;;26.30;3.97;;;;;;;;;;5097714;28;20416;-92
2022/01/03 00:23:24;;;;;;;32.17;3.85;;;;;;;;;;5096690;28;20020;-93
2022/01/03 00:25:51;;;;;;;24.48;3.53;;;;;;;;;;5096329;28;20051;-93
2022/01/03 00:28:21;;;;;;;27.38;2.80;;;;;;;;;;5096586;28;20099;-93
2022/01/03 00:30:49;;;;;;;22.05;2.55;;;;;;;;;;5078336;28;20032;-93
2022/01/03 00:33:16;;;;;;;26.88;2.80;;;;;;;;;;5076143;28;20024;-93
2022/01/03 00:35:41;;;;;;;21.73;3.13;;;;;;;;;;5076000;28;20050;-93
2022/01/03 00:38:07;;;;;;;22.88;2.92;;;;;;;;;;5077171;28;20020;-92
2022/01/03 00:40:33;;;;;;;22.15;2.95;;;;;;;;;;5076015;28;20013;-93
2022/01/03 00:42:59;;;;;;;21.05;3.15;;;;;;;;;;5076005;28;20017;-92
2022/01/03 00:45:24;;;;;;;32.95;3.35;;;;;;;;;;5077183;28;20025;-93
2022/01/03 00:47:49;;;;;;;30.05;3.15;;;;;;;;;;5075844;28;20016;-93
2022/01/03 00:50:15;;;;;;;19.95;3.30;;;;;;;;;;5075859;28;20017;-93
2022/01/03 00:52:41;;;;;;;23.67;2.78;;;;;;;;;;5075761;28;20472;-93
2022/01/03 00:55:07;;;;;;;31.98;2.97;;;;;;;;;;5075696;28;20153;-93
2022/01/03 00:57:41;;;;;;;25.80;3.10;;;;;;;;;;5076856;28;20044;-92
2022/01/03 01:00:08;;;;;;;24.58;2.85;;;;;;;;;;5075157;28;20388;-93
2022/01/03 01:02:37;;;;;;;21.65;2.90;;;;;;;;;;5075659;28;20020;-93
2022/01/03 01:05:04;;;;;;;23.98;3.10;;;;;;;;;;5075647;28;20468;-92
2022/01/03 01:07:30;;;;;;;21.83;2.20;;;;;;;;;;5075394;28;20021;-93
2022/01/03 01:09:56;;;;;;;21.08;2.15;;;;;;;;;;5075537;28;20070;-93
2022/01/03 01:12:21;;;;;;;20.95;2.80;;;;;;;;;;5075546;28;20460;-92
2022/01/03 01:14:50;;;;;;;26.73;3.38;;;;;;;;;;5076659;28;20033;-93
2022/01/03 01:17:15;;;;;;;23.73;2.67;;;;;;;;;;5075385;28;20016;-93
2022/01/03 01:19:40;;;;;;;23.70;3.15;;;;;;;;;;5075297;28;20020;-92
2022/01/03 01:22:06;;;;;;;24.75;2.65;;;;;;;;;;5076245;28;20021;-94
2022/01/03 01:24:44;;;;;;;28.20;3.25;;;;;;;;;;5075149;28;20372;-93
2022/01/03 01:29:53;;;;;;;19.90;2.55;;;;;;;;;;5075806;28;20427;-92
2022/01/03 01:32:18;;;;;;;20.40;2.33;;;;;;;;;;5075193;28;20013;-93
2022/01/03 01:34:44;;;;;;;23.52;3.00;;;;;;;;;;5075045;28;20017;-93
2022/01/03 01:37:09;;;;;;;26.83;3.50;;;;;;;;;;5075025;28;20024;-93
2022/01/03 01:39:35;;;;;;;21.90;2.92;;;;;;;;;;5074986;28;20021;-92
2022/01/03 01:42:04;;;;;;;16.60;2.00;;;;;;;;;;5074863;28;20031;-92
2022/01/03 01:44:31;;;;;;;22.90;2.58;;;;;;;;;;5075795;28;20528;-92
2022/01/03 01:47:01;;;;;;;25.30;3.50;;;;;;;;;;5074703;28;20074;-92
2022/01/03 01:49:26;;;;;;;34.67;3.53;;;;;;;;;;5075745;28;20032;-92
2022/01/03 01:51:59;;;;;;;28.25;3.58;;;;;;;;;;5074625;28;20112;-92
2022/01/03 01:54:24;;;;;;;;;;;;;;;;;;5074981;28;20081;-93
2022/01/03 01:56:52;;;;;;;29.15;3.58;;;;;;;;;;5074449;28;19909;-92
2022/01/03 01:59:33;;;;;;;27.85;2.58;;;;;;;;;;5074552;28;20315;-92
2022/01/03 02:02:03;;;;;;;20.02;2.78;;;;;;;;;;5075723;28;20040;-92
2022/01/03 02:04:46;;;;;;;25.75;3.60;;;;;;;;;;5074441;28;20028;-93
2022/01/03 02:07:30;;;;;;;24.08;2.78;;;;;;;;;;5074364;28;20032;-92
2022/01/03 02:10:06;;;;;;;22.75;2.70;;;;;;;;;;5073609;28;20020;-92
2022/01/03 02:12:43;;;;;;;29.30;3.22;;;;;;;;;;5087128;28;20070;-93
2022/01/03 02:15:11;;;;;;;25.10;3.15;;;;;;;;;;5094622;28;20026;-92
2022/01/03 02:17:37;;;;;;;24.55;3.22;;;;;;;;;;5094533;28;20031;-92
2022/01/03 02:20:04;;;;;;;20.52;2.55;;;;;;;;;;5095487;28;20024;-93
2022/01/03 02:22:29;;;;;;;31.10;3.47;;;;;;;;;;5094360;28;20122;-92
2022/01/03 02:24:54;;;;;;;24.48;2.25;;;;;;;;;;5094229;28;20059;-92
2022/01/03 02:27:20;;;;;;;21.98;2.83;;;;;;;;;;5094090;28;20024;-93
2022/01/03 02:29:45;;;;;;;26.48;3.20;;;;;;;;;;5094377;28;20069;-93
2022/01/03 02:32:10;;;;;;;29.63;2.83;;;;;;;;;;5094186;28;20020;-93
2022/01/03 02:34:35;;;;;;;18.52;2.38;;;;;;;;;;5095269;28;20102;-94
2022/01/03 02:37:01;;;;;;;30.63;2.25;;;;;;;;;;5094235;28;20024;-93
2022/01/03 02:39:27;;;;;;;30.45;3.97;;;;;;;;;;5088824;28;20099;-92
2022/01/03 02:41:52;;;;;;;26.02;3.25;;;;;;;;;;5074766;28;20586;-93
2022/01/03 02:44:18;;;;;;;25.42;3.15;;;;;;;;;;5073261;28;20029;-93
2022/01/03 02:46:43;;;;;;;26.65;4.03;;;;;;;;;;5073693;28;20066;-93
2022/01/03 02:49:08;;;;;;;22.67;3.20;;;;;;;;;;5083917;28;20020;-92
2022/01/03 02:51:33;;;;;;;21.65;2.47;;;;;;;;;;5094890;28;20012;-92
2022/01/03 02:53:58;;;;;;;16.08;2.58;;;;;;;;;;5093778;28;20122;-92
2022/01/03 02:56:24;;;;;;;21.17;2.53;;;;;;;;;;5093764;28;20123;-93
2022/01/03 02:58:49;;;;;;;25.35;2.55;;;;;;;;;;5094790;28;20027;-93
2022/01/03 03:01:14;;;;;;;23.55;2.65;;;;;;;;;;5093779;28;20193;-93
2022/01/03 03:03:39;;;;;;;21.75;3.22;;;;;;;;;;5093663;28;20027;-93
2022/01/03 03:06:04;;;;;;;22.70;2.65;;;;;;;;;;5093511;28;20078;-93
2022/01/03 03:08:30;;;;;;;29.85;4.32;;;;;;;;;;5094727;28;20020;-93
2022/01/03 03:10:56;;;;;;;25.50;3.25;;;;;;;;;;5092849;28;20364;-93
2022/01/03 03:13:22;;;;;;;24.67;2.22;;;;;;;;;;5073160;28;20118;-93
2022/01/03 03:15:48;;;;;;;28.55;2.63;;;;;;;;;;5073283;28;20028;-92
2022/01/03 03:18:14;;;;;;;30.88;3.60;;;;;;;;;;5072535;28;20024;-93
2022/01/03 03:20:39;;;;;;;25.23;3.13;;;;;;;;;;5066678;28;20047;-93
2022/01/03 03:23:04;;;;;;;20.58;2.90;;;;;;;;;;5053335;28;20526;-94
2022/01/03 03:25:34;;;;;;;19.05;2.75;;;;;;;;;;5054137;28;20027;-93
2022/01/03 03:28:00;;;;;;;23.52;3.60;;;;;;;;;;5053311;28;20025;-93
2022/01/03 03:30:30;;;;;;;20.45;2.78;;;;;;;;;;5054245;28;20017;-93
2022/01/03 03:32:59;;;;;;;18.05;2.30;;;;;;;;;;5054190;28;20017;-93
2022/01/03 03:35:24;;;;;;;28.88;2.70;;;;;;;;;;5053055;28;20028;-93
2022/01/03 03:37:49;;;;;;;24.23;2.80;;;;;;;;;;5053090;28;20477;-93
2022/01/03 03:40:15;;;;;;;29.10;3.28;;;;;;;;;;5063235;28;20476;-94
2022/01/03 03:42:41;;;;;;;25.88;2.97;;;;;;;;;;5074177;28;20012;-93
2022/01/03 03:45:07;;;;;;;26.25;3.10;;;;;;;;;;5073181;28;20020;-93
2022/01/03 03:47:32;;;;;;;24.80;3.33;;;;;;;;;;5072924;28;20017;-93
2022/01/03 03:49:58;;;;;;;19.88;2.38;;;;;;;;;;5073005;28;20415;-93
2022/01/03 03:52:23;;;;;;;25.98;3.58;;;;;;;;;;5072935;28;20411;-93
2022/01/03 03:54:48;;;;;;;20.10;2.60;;;;;;;;;;5072930;28;20486;-93
2022/01/03 03:57:14;;;;;;;22.90;2.63;;;;;;;;;;5072931;28;20134;-93
2022/01/03 03:59:40;;;;;;;18.95;2.90;;;;;;;;;;5072899;28;20020;-92
2022/01/03 04:02:06;;;;;;;27.88;3.95;;;;;;;;;;5072831;28;20108;-93
2022/01/03 04:04:31;;;;;;;28.90;2.72;;;;;;;;;;5072843;28;20032;-93
2022/01/03 04:06:56;;;;;;;23.83;2.65;;;;;;;;;;5072669;28;20021;-92
2022/01/03 04:09:22;;;;;;;22.77;2.60;;;;;;;;;;5072450;28;20115;-93
2022/01/03 04:11:48;;;;;;;29.83;2.95;;;;;;;;;;5072802;28;20085;-93
2022/01/03 04:14:13;;;;;;;22.83;2.78;;;;;;;;;;5073828;28;20021;-93
2022/01/03 04:16:39;;;;;;;25.38;3.10;;;;;;;;;;5072737;28;20028;-92
2022/01/03 04:19:04;;;;;;;25.08;3.15;;;;;;;;;;5072759;28;20411;-92
2022/01/03 04:21:30;;;;;;;28.08;3.30;;;;;;;;;;5072697;28;20021;-92
2022/01/03 04:23:55;;;;;;;24.98;2.80;;;;;;;;;;5072779;28;20456;-93
2022/01/03 04:26:20;;;;;;;25.75;3.85;;;;;;;;;;5072389;28;20031;-92
2022/01/03 04:28:46;;;;;;;28.77;3.70;;;;;;;;;;5072566;28;20024;-92
2022/01/03 04:31:11;;;;;;;19.30;3.42;;;;;;;;;;5072646;28;20020;-93
2022/01/03 04:33:37;;;;;;;20.45;2.50;;;;;;;;;;5073338;28;20051;-93
2022/01/03 04:36:03;;;;;;;25.83;2.58;;;;;;;;;;5075961;28;20058;-93
2022/01/03 04:38:28;;;;;;;20.48;3.05;;;;;;;;;;5076195;28;20020;-93
2022/01/03 04:40:54;;;;;;;23.38;2.60;;;;;;;;;;5076114;28;20504;-93
2022/01/03 04:43:19;;;;;;;23.88;2.85;;;;;;;;;;5076773;28;20023;-92
2022/01/03 04:45:44;;;;;;;26.25;3.50;;;;;;;;;;5076014;28;20020;-92
2022/01/03 04:48:09;;;;;;;25.15;3.25;;;;;;;;;;5075954;28;20020;-93
2022/01/03 04:50:38;;;;;;;18.63;2.53;;;;;;;;;;5075851;28;20047;-93
2022/01/03 04:53:03;;;;;;;26.48;2.78;;;;;;;;;;5075835;28;20104;-93
2022/01/03 04:55:28;;;;;;;20.80;3.10;;;;;;;;;;5075781;28;20044;-92
2022/01/03 04:57:53;;;;;;;24.60;2.30;;;;;;;;;;5075697;28;20029;-93
2022/01/03 05:00:19;;;;;;;29.58;2.85;;;;;;;;;;5076779;28;20021;-93
2022/01/03 05:02:44;;;;;;;26.60;3.28;;;;;;;;;;5075999;28;20077;-93
2022/01/03 05:05:11;;;;;;;16.85;2.38;;;;;;;;;;5075702;28;20027;-93
2022/01/03 05:07:36;;;;;;;28.00;3.55;;;;;;;;;;5075452;28;20028;-92
2022/01/03 05:10:02;;;;;;;34.42;3.83;;;;;;;;;;5075508;28;20023;-92
2022/01/03 05:12:27;;;;;;;29.65;3.85;;;;;;;;;;5075469;28;20028;-92
2022/01/03 05:14:52;;;;;;;26.80;3.13;;;;;;;;;;5075324;28;20016;-92
2022/01/03 05:17:18;;;;;;;20.77;2.65;;;;;;;;;;5075347;28;20028;-92
2022/01/03 05:19:43;;;;;;;24.77;3.88;;;;;;;;;;5075373;28;20472;-92
2022/01/03 05:22:08;;;;;;;21.73;2.00;;;;;;;;;;5075256;28;20023;-92
2022/01/03 05:24:34;;;;;;;24.05;2.63;;;;;;;;;;5075237;28;20032;-93
2022/01/03 05:27:00;;;;;;;22.13;2.60;;;;;;;;;;5075076;28;20024;-92
2022/01/03 05:29:25;;;;;;;23.40;2.30;;;;;;;;;;5076284;28;20373;-92
2022/01/03 05:31:50;;;;;;;25.88;2.03;;;;;;;;;;5090539;28;20104;-92
2022/01/03 05:34:16;;;;;;;24.80;3.40;;;;;;;;;;5095467;28;20464;-92
2022/01/03 05:36:41;;;;;;;31.23;3.55;;;;;;;;;;5095252;28;20162;-92
2022/01/03 05:39:07;;;;;;;19.63;2.25;;;;;;;;;;5095206;28;20024;-92
2022/01/03 05:41:32;;;;;;;18.63;2.42;;;;;;;;;;5095207;28;20091;-92
2022/01/03 05:43:58;;;;;;;14.73;1.85;;;;;;;;;;5095132;28;20085;-92
2022/01/03 05:46:23;;;;;;;18.50;3.30;;;;;;;;;;5095115;28;20364;-92
2022/01/03 05:48:48;;;;;;;16.75;2.55;;;;;;;;;;5094950;28;20016;-92
2022/01/03 05:51:13;;;;;;;23.42;2.55;;;;;;;;;;5094846;28;20452;-92
2022/01/03 05:53:39;;;;;;;23.23;3.60;;;;;;;;;;5095036;28;20542;-93
2022/01/03 05:56:04;;;;;;;22.73;2.80;;;;;;;;;;5095840;28;20016;-92
2022/01/03 05:58:29;;;;;;;18.45;2.72;;;;;;;;;;5087125;28;20352;-92
2022/01/03 06:00:55;;;;;;;20.83;2.33;;;;;;;;;;5055948;28;20032;-92
2022/01/03 06:03:22;;;;;;;26.05;2.85;;;;;;;;;;5055620;28;20453;-92
2022/01/03 06:08:22;;;;;;;22.25;2.65;;;;;;;;;;5055634;28;20376;-92
2022/01/03 06:10:48;;;;;;;22.65;2.45;;;;;;;;;;5054384;28;20031;-92
2022/01/03 06:13:13;;;;;;;21.52;3.65;;;;;;;;;;5054341;28;20083;-93
2022/01/03 06:15:39;;;;;;;17.58;2.80;;;;;;;;;;5055440;28;20051;-92
2022/01/03 06:18:05;;;;;;;19.42;2.30;;;;;;;;;;5055316;28;20467;-91
2022/01/03 06:20:31;;;;;;;21.05;2.53;;;;;;;;;;5054247;28;20117;-93
2022/01/03 06:22:56;;;;;;;17.83;2.88;;;;;;;;;;5054184;28;20056;-93
2022/01/03 06:25:21;;;;;;;21.50;2.85;;;;;;;;;;5054296;28;20029;-92
2022/01/03 06:27:47;;;;;;;29.45;2.58;;;;;;;;;;5054082;28;20033;-93
2022/01/03 06:30:12;;;;;;;22.92;2.22;;;;;;;;;;5054022;28;20021;-93
2022/01/03 06:32:37;;;;;;;18.45;2.45;;;;;;;;;;5054002;28;20054;-93
2022/01/03 06:35:03;;;;;;;28.85;3.40;;;;;;;;;;5053944;28;20021;-93
2022/01/03 06:37:28;;;;;;;21.05;3.08;;;;;;;;;;5054929;28;20017;-92
2022/01/03 06:39:53;;;;;;;23.17;3.95;;;;;;;;;;5053890;28;20021;-92
2022/01/03 06:42:19;;;;;;;22.75;3.20;;;;;;;;;;5055110;28;20021;-92
2022/01/03 06:44:45;;;;;;;25.20;3.25;;;;;;;;;;5053818;28;20147;-93
2022/01/03 06:47:10;;;;;;;28.50;3.00;;;;;;;;;;5053876;28;20079;-92
2022/01/03 06:49:36;;;;;;;26.02;3.53;;;;;;;;;;5054837;28;20453;-93
2022/01/03 06:52:01;;;;;;;18.23;2.60;;;;;;;;;;5053625;28;20044;-92
2022/01/03 06:54:26;;;;;;;22.98;2.92;;;;;;;;;;5066348;28;20021;-93
2022/01/03 06:56:52;;;;;;;21.27;2.55;;;;;;;;;;5073098;28;20535;-93
2022/01/03 06:59:17;;;;;;;20.55;2.22;;;;;;;;;;5073565;28;20020;-92
2022/01/03 07:01:42;;;;;;;21.30;2.90;;;;;;;;;;5072695;28;20044;-92
2022/01/03 07:04:07;;;;;;;16.67;2.50;;;;;;;;;;5073165;28;20055;-93
2022/01/03 07:06:32;;;;;;;22.85;3.03;;;;;;;;;;5073148;28;20101;-93
2022/01/03 07:08:58;;;;;;;17.58;2.72;;;;;;;;;;5073320;28;20021;-93
2022/01/03 07:11:23;;;;;;;18.85;2.70;;;;;;;;;;5074475;28;20021;-92
2022/01/03 07:13:52;;;;;;;26.90;3.10;;;;;;;;;;5073347;28;20032;-92
2022/01/03 07:19:05;;;;;;;16.85;2.45;;;;;;;;;;5074424;28;20094;-92
2022/01/03 07:21:32;;;;;;;16.73;2.33;;;;;;;;;;5073325;28;20452;-93
2022/01/03 07:23:57;;;;;;;24.48;3.25;;;;;;;;;;5074379;28;20247;-92
2022/01/03 07:26:27;;;;;;;24.00;3.50;;;;;;;;;;5072951;28;20028;-93
2022/01/03 07:28:52;;;;;;;23.20;2.65;;;;;;;;;;5074170;28;20087;-92
2022/01/03 07:31:18;;;;;;;20.45;3.53;;;;;;;;;;5073032;28;20052;-92
2022/01/03 07:33:43;;;;;;;27.35;2.85;;;;;;;;;;5072951;28;20040;-92
2022/01/03 07:36:09;;;;;;;22.85;2.88;;;;;;;;;;5073161;28;20020;-93
2022/01/03 07:38:34;;;;;;;21.67;4.07;;;;;;;;;;5073217;28;20021;-92
2022/01/03 07:41:00;;;;;;;16.38;2.28;;;;;;;;;;5072975;28;20032;-93
2022/01/03 07:43:25;;;;;;;16.88;2.20;;;;;;;;;;5073032;28;20032;-93
2022/01/03 07:45:50;;;;;;;22.77;2.83;;;;;;;;;;5072947;28;20048;-93
2022/01/03 07:48:15;;;;;;;20.27;2.40;;;;;;;;;;5074030;28;20035;-93
2022/01/03 07:50:40;;;;;;;18.83;3.05;;;;;;;;;;5073089;28;20024;-93
2022/01/03 07:53:06;;;;;;;27.98;3.58;;;;;;;;;;5072975;28;20016;-92
2022/01/03 07:55:31;;;;;;;21.55;2.90;;;;;;;;;;5073144;28;20032;-92
2022/01/03 07:57:56;;;;;;;21.63;2.78;;;;;;;;;;5072227;28;20060;-93
2022/01/03 08:00:22;;;;;;;22.75;3.03;;;;;;;;;;5072898;28;20048;-92
2022/01/03 08:02:47;;;;;;;22.67;2.90;;;;;;;;;;5061675;28;20032;-92
2022/01/03 08:05:14;;;;;;;25.30;3.65;;;;;;;;;;5093081;28;20023;-92
2022/01/03 08:07:39;;;;;;;19.98;2.10;;;;;;;;;;5071600;28;20064;-92
2022/01/03 08:10:05;;;;;;;24.20;2.88;;;;;;;;;;5078059;28;20016;-92
2022/01/03 08:12:31;;;;;;;23.52;2.95;;;;;;;;;;5097027;28;20021;-93
2022/01/03 08:14:56;;;;;;;23.08;2.47;;;;;;;;;;5069865;28;20162;-93
2022/01/03 08:17:21;;;;;;;19.15;3.30;;;;;;;;;;5076088;28;20031;-92
2022/01/03 08:19:46;;;;;;;32.33;3.17;;;;;;;;;;5057435;28;20025;-92
2022/01/03 08:22:11;;;;;;;20.98;2.75;;;;;;;;;;5063001;28;20035;-92
2022/01/03 08:24:37;;;;;;;27.42;3.65;;;;;;;;;;5074961;28;20037;-92
2022/01/03 08:27:02;;;;;;;17.40;2.08;;;;;;;;;;5095465;28;20032;-92
2022/01/03 08:29:28;;;;;;;19.42;2.50;;;;;;;;;;5090151;28;20040;-92
2022/01/03 08:31:53;;;;;;;25.30;3.70;;;;;;;;;;5076339;28;20023;-92
2022/01/03 08:34:18;;;;;;;22.35;2.95;;;;;;;;;;5067973;28;20062;-92
2022/01/03 08:36:44;;;;;;;26.10;2.75;;;;;;;;;;5057481;28;20024;-92
2022/01/03 08:39:09;;;;;;;17.15;2.78;;;;;;;;;;5056614;28;20021;-94
2022/01/03 08:41:34;;;;;;;26.45;2.95;;;;;;;;;;5076967;28;20024;-93
2022/01/03 08:44:00;;;;;;;18.60;2.58;;;;;;;;;;5077475;28;20479;-92
2022/01/03 08:46:25;;;;;;;20.23;2.92;;;;;;;;;;5078813;28;20025;-92
2022/01/03 08:48:51;;;;;;;24.75;2.60;;;;;;;;;;5068976;28;20372;-90
2022/01/03 08:51:16;;;;;;;27.65;4.00;;;;;;;;;;5077211;28;20029;-92
2022/01/03 08:53:42;;;;;;;17.63;3.20;;;;;;;;;;5078991;28;20479;-91
2022/01/03 08:56:07;;;;;;;26.15;2.70;;;;;;;;;;5081782;28;20025;-93
2022/01/03 08:58:32;;;;;;;23.60;3.90;;;;;;;;;;5075835;28;20504;-90
2022/01/03 09:00:58;;;;;;;24.15;3.88;;;;;;;;;;5077338;28;20020;-91
2022/01/03 09:03:23;;;;;;;34.65;4.00;;;;;;;;;;5088691;28;20384;-91
2022/01/03 09:05:49;;;;;;;19.52;2.80;;;;;;;;;;5096100;28;20053;-91
2022/01/03 09:08:16;;;;;;;22.05;2.92;;;;;;;;;;5092926;28;20449;-91
2022/01/03 09:10:42;;;;;;;22.35;2.65;;;;;;;;;;5076710;28;20365;-91
2022/01/03 09:13:07;;;;;;;25.75;3.53;;;;;;;;;;5079740;28;20028;-92
2022/01/03 09:15:32;;;;;;;24.10;3.63;;;;;;;;;;5084033;28;20023;-89
2022/01/03 09:17:58;;;;;;;23.38;3.10;;;;;;;;;;5097018;28;20024;-93
2022/01/03 09:20:23;;;;;;;20.55;3.30;;;;;;;;;;5087722;28;20066;-95
2022/01/03 09:22:52;;;;;;;33.03;4.38;;;;;;;;;;5075413;28;20444;-93
2022/01/03 09:30:30;;;;;;;27.05;3.65;;;;;;;;;;5067484;28;20116;-93
2022/01/03 09:32:55;;;;;;;23.23;3.05;;;;;;;;;;5078756;28;20048;-95
2022/01/03 09:35:21;;;;;;;27.40;3.50;;;;;;;;;;5091243;28;20040;-94
2022/01/03 09:37:47;;;;;;;18.23;2.92;;;;;;;;;;5066807;28;20460;-95
2022/01/03 09:40:12;;;;;;;29.45;3.22;;;;;;;;;;5075869;28;20074;-93
2022/01/03 09:42:40;;;;;;;24.27;3.47;;;;;;;;;;5059487;28;20032;-92
2022/01/03 09:45:07;;;;;;;19.42;2.72;;;;;;;;;;5069479;28;20020;-94
2022/01/03 09:47:33;;;;;;;20.52;2.70;;;;;;;;;;5093872;28;20027;-94
2022/01/03 09:49:59;;;;;;;27.88;3.30;;;;;;;;;;5071206;28;20013;-94
2022/01/03 09:52:25;;;;;;;20.98;3.45;;;;;;;;;;5055552;28;20017;-92
2022/01/03 09:54:50;;;;;;;31.80;4.45;;;;;;;;;;5055667;28;20028;-92
2022/01/03 09:57:18;;;;;;;25.98;3.10;;;;;;;;;;5069926;28;20028;-93
2022/01/03 09:59:43;;;;;;;23.85;3.25;;;;;;;;;;5095224;28;20119;-93
2022/01/03 10:02:09;;;;;;;22.90;3.17;;;;;;;;;;5067318;28;20059;-92
2022/01/03 10:04:34;;;;;;;17.30;3.05;;;;;;;;;;5066833;28;20106;-92
2022/01/03 10:07:00;;;;;;;21.35;3.30;;;;;;;;;;5078343;28;20067;-92
2022/01/03 10:09:26;;;;;;;17.52;2.55;;;;;;;;;;5074596;28;20513;-92
2022/01/03 10:11:52;;;;;;;24.23;3.25;;;;;;;;;;5074682;28;20099;-93
2022/01/03 10:14:17;;;;;;;19.33;2.58;;;;;;;;;;5073588;28;20021;-93
2022/01/03 10:16:43;;;;;;;28.05;3.70;;;;;;;;;;5081108;28;20488;-93
2022/01/03 10:19:09;;;;;;;24.60;2.58;;;;;;;;;;5092061;28;20028;-93
2022/01/03 10:21:34;;;;;;;17.05;3.00;;;;;;;;;;5071704;28;20037;-91
2022/01/03 10:23:59;;;;;;;22.80;2.60;;;;;;;;;;5085245;28;20031;-92
2022/01/03 10:26:24;;;;;;;16.98;3.95;;;;;;;;;;5084584;28;20016;-93
2022/01/03 10:28:51;;;;;;;21.73;3.05;;;;;;;;;;5073913;28;20020;-92
2022/01/03 10:31:17;;;;;;;26.15;3.20;;;;;;;;;;5073143;28;20044;-92
2022/01/03 10:33:43;;;;;;;25.50;2.67;;;;;;;;;;5073647;28;20036;-93
2022/01/03 10:36:24;;;;;;;26.58;3.40;;;;;;;;;;5073966;28;20062;-93
2022/01/03 10:38:50;;;;;;;19.35;3.00;;;;;;;;;;5055084;28;20027;-93
2022/01/03 10:41:16;;;;;;;27.75;3.20;;;;;;;;;;5062423;28;20017;-92
2022/01/03 10:43:45;;;;;;;16.13;3.20;;;;;;;;;;5074865;28;20027;-92
2022/01/03 10:46:18;;;;;;;15.63;2.08;;;;;;;;;;5069754;28;20017;-91
2022/01/03 10:48:44;;;;;;;24.13;3.13;;;;;;;;;;5073707;28;20349;-93
2022/01/03 10:51:09;;;;;;;28.02;3.97;;;;;;;;;;5073320;28;20085;-92
2022/01/03 10:53:36;;;;;;;22.73;4.30;;;;;;;;;;5073133;28;20020;-91
2022/01/03 10:56:20;;;;;;;25.33;3.00;;;;;;;;;;5075039;28;20070;-93
2022/01/03 10:58:46;;;;;;;31.02;4.00;;;;;;;;;;5062012;28;20120;-93
2022/01/03 11:01:20;;;;;;;22.90;3.83;;;;;;;;;;5079793;28;20051;-90
2022/01/03 11:03:46;;;;;;;30.05;4.65;;;;;;;;;;5082702;28;20089;-91
2022/01/03 11:06:23;;;;;;;29.20;3.30;;;;;;;;;;5088675;28;20497;-92
2022/01/03 11:11:55;;;;;;;32.15;4.38;;;;;;;;;;5073729;28;20024;-90
2022/01/03 11:14:30;;;;;;;27.17;3.40;;;;;;;;;;5075147;28;20393;-91
2022/01/03 11:16:55;;;;;;;27.70;3.15;;;;;;;;;;5072728;28;20170;-91
2022/01/03 11:19:39;;;;;;;20.52;2.78;;;;;;;;;;5072792;28;20044;-91
2022/01/03 11:22:04;;;;;;;29.83;4.35;;;;;;;;;;5071861;28;20024;-90
2022/01/03 11:24:30;;;;;;;20.63;2.75;;;;;;;;;;5072740;28;20135;-90
2022/01/03 11:26:55;;;;;;;14.48;2.22;;;;;;;;;;5072698;28;20562;-90
2022/01/03 11:29:21;;;;;;;27.02;2.90;;;;;;;;;;5072069;28;20019;-90
2022/01/03 11:31:49;;;;;;;24.95;2.75;;;;;;;;;;5073631;28;20056;-89
2022/01/03 11:34:15;;;;;;;19.60;2.88;;;;;;;;;;5072107;28;20021;-89
2022/01/03 11:36:41;;;;;;;20.15;2.92;;;;;;;;;;5072922;28;20402;-90
2022/01/03 11:39:10;;;;;;;22.48;3.35;;;;;;;;;;5072970;28;20027;-90
2022/01/03 11:41:36;;;;;;;19.67;2.80;;;;;;;;;;5068295;28;20035;-90
2022/01/03 11:44:02;;;;;;;23.83;3.35;;;;;;;;;;5089810;28;20024;-90
2022/01/03 11:46:28;;;;;;;20.85;3.10;;;;;;;;;;5066423;28;20020;-90
2022/01/03 11:48:53;;;;;;;26.15;3.95;;;;;;;;;;5090630;28;20017;-90
2022/01/03 11:51:18;;;;;;;25.08;3.80;;;;;;;;;;5076809;28;20019;-90
2022/01/03 11:53:48;;;;;;;35.05;3.45;;;;;;;;;;5076802;28;20013;-90
2022/01/03 11:56:18;;;;;;;31.65;4.25;;;;;;;;;;5077881;28;20031;-90
2022/01/03 12:04:28;;;;;;;16.23;2.67;;;;;;;;;;5066957;28;20032;-91
2022/01/03 12:07:02;;;;;;;28.70;4.43;;;;;;;;;;5076522;28;20025;-90
2022/01/03 12:09:28;;;;;;;30.48;4.20;;;;;;;;;;5090272;28;20379;-90
2022/01/03 12:11:54;;;;;;;29.63;4.18;;;;;;;;;;5056406;28;20465;-90
2022/01/03 12:14:23;;;;;;;26.30;3.05;;;;;;;;;;5058651;28;20107;-90
2022/01/03 12:16:52;;;;;;;22.83;3.63;;;;;;;;;;5077362;28;20033;-90
2022/01/03 12:19:28;;;;;;;26.50;3.78;;;;;;;;;;5077337;28;20031;-90
2022/01/03 12:21:54;;;;;;;23.92;3.78;;;;;;;;;;5065952;28;20021;-90
2022/01/03 12:24:26;;;;;;;28.50;3.20;;;;;;;;;;5091463;28;20028;-89
2022/01/03 12:27:09;;;;;;;18.83;2.77;;;;;;;;;;5077056;28;20020;-89
2022/01/03 12:29:55;;;;;;;17.10;2.75;;;;;;;;;;5076023;28;20249;-89
2022/01/03 12:32:24;;;;;;;12.80;2.47;;;;;;;;;;5057190;28;20025;-89
2022/01/03 12:35:08;;;;;;;21.33;3.17;;;;;;;;;;5055861;28;20187;-89
2022/01/03 12:37:56;;;;;;;21.77;3.00;;;;;;;;;;5055699;28;20091;-89
2022/01/03 12:40:32;;;;;;;14.73;2.20;;;;;;;;;;5055334;28;20048;-89
2022/01/03 12:42:57;;;;;;;16.10;2.42;;;;;;;;;;5072111;28;20044;-89
2022/01/03 12:45:25;;;;;;;18.15;2.45;;;;;;;;;;5075621;28;20525;-89
2022/01/03 12:47:50;;;;;;;17.75;2.08;;;;;;;;;;5075453;28;20020;-89
2022/01/03 12:50:29;;;;;;;15.73;2.20;;;;;;;;;;5060703;28;20021;-88
2022/01/03 12:52:57;;;;;;;12.57;2.25;;;;;;;;;;5055578;28;20017;-89
2022/01/03 12:55:37;;;;;;;20.30;2.97;;;;;;;;;;5055029;28;20032;-89
2022/01/03 12:58:03;;;;;;;10.73;2.60;;;;;;;;;;5056546;28;20100;-89
2022/01/03 13:00:39;;;;;;;10.20;2.05;;;;;;;;;;5071475;28;20439;-89
2022/01/03 13:03:22;;;;;;;18.20;2.42;;;;;;;;;;5074925;28;20384;-89
2022/01/03 13:06:06;;;;;;;10.15;2.28;;;;;;;;;;5058166;28;20029;-89
2022/01/03 13:08:32;;;;;;;16.15;1.88;;;;;;;;;;5067927;28;20415;-88
2022/01/03 13:11:06;;;;;;;9.45;1.88;;;;;;;;;;5075001;28;20309;-89
2022/01/03 13:13:31;;;;;;;9.80;1.70;;;;;;;;;;5061483;28;20469;-88
2022/01/03 13:15:57;;;;;;;10.77;2.07;;;;;;;;;;5066744;28;20035;-89
2022/01/03 13:18:22;;;;;;;7.60;1.92;;;;;;;;;;5055243;28;20031;-91
2022/01/03 13:20:57;;;;;;;14.05;2.53;;;;;;;;;;5055281;28;20029;-90
2022/01/03 13:23:24;;;;;;;9.40;1.43;;;;;;;;;;5080591;28;20039;-90
2022/01/03 13:25:50;;;;;;;14.50;2.57;;;;;;;;;;5095199;28;20056;-91
2022/01/03 13:28:15;;;;;;;10.87;1.60;;;;;;;;;;5096474;28;20048;-90
2022/01/03 13:31:00;;;;;;;6.20;1.40;;;;;;;;;;5077862;28;20016;-91
2022/01/03 13:33:25;;;;;;;7.17;1.50;;;;;;;;;;5074440;28;20039;-90
2022/01/03 13:36:00;;;;;;;5.13;1.10;;;;;;;;;;5075200;28;20107;-90
2022/01/03 13:38:27;;;;;;;9.93;1.25;;;;;;;;;;5074688;28;20433;-90
2022/01/03 13:40:52;;;;;;;10.57;1.58;;;;;;;;;;5074860;28;20042;-90
2022/01/03 13:43:19;;;;;;;13.00;1.40;;;;;;;;;;5072039;28;20024;-91
2022/01/03 13:51:06;;;;;;;5.65;1.20;;;;;;;;;;5075739;28;20043;-90
2022/01/03 13:53:32;;;;;;;9.23;1.50;;;;;;;;;;5075504;28;20408;-89
2022/01/03 13:55:57;;;;;;;10.82;1.80;;;;;;;;;;5074077;28;20021;-90
2022/01/03 13:58:24;;;;;;;13.20;1.83;;;;;;;;;;5074491;28;20023;-90
2022/01/03 14:00:56;;;;;;;6.13;1.25;;;;;;;;;;5074262;28;20375;-90
2022/01/03 14:03:22;;;;;;;4.85;1.10;;;;;;;;;;5074288;28;20126;-90
2022/01/03 14:05:48;;;;;;;6.00;1.30;;;;;;;;;;5073509;28;20024;-90
2022/01/03 14:08:19;;;;;;;8.90;1.40;;;;;;;;;;5075011;28;20029;-91
2022/01/03 14:10:45;;;;;;;5.78;1.45;;;;;;;;;;5068489;28;20099;-90
2022/01/03 14:13:12;;;;;;;6.90;1.43;;;;;;;;;;5070886;28;20009;-90
2022/01/03 14:15:57;;;;;;;6.07;1.15;;;;;;;;;;5075078;28;20426;-90
2022/01/03 14:18:30;;;;;;;9.97;1.30;;;;;;;;;;5059636;28;20070;-91
2022/01/03 14:21:04;;;;;;;6.60;1.00;;;;;;;;;;5074285;28;20021;-91
2022/01/03 14:23:29;;;;;;;8.88;2.28;;;;;;;;;;5065209;28;20024;-91
2022/01/03 14:26:09;;;;;;;6.07;1.35;;;;;;;;;;5073952;28;20028;-93
2022/01/03 14:28:37;;;;;;;9.85;1.17;;;;;;;;;;5073909;28;20460;-91
2022/01/03 14:31:02;;;;;;;6.93;0.90;;;;;;;;;;5083206;28;20035;-91
2022/01/03 14:33:27;;;;;;;5.53;0.80;;;;;;;;;;5075132;28;20388;-90
2022/01/03 14:35:53;;;;;;;5.38;1.08;;;;;;;;;;5074009;28;20020;-90
2022/01/03 14:38:22;;;;;;;4.85;1.10;;;;;;;;;;5073994;28;20050;-91
2022/01/03 14:40:52;;;;;;;5.87;1.00;;;;;;;;;;5076559;28;20506;-91
2022/01/03 14:43:22;;;;;;;5.70;1.23;;;;;;;;;;5088731;28;20028;-90
2022/01/03 14:45:49;;;;;;;7.03;1.00;;;;;;;;;;5065614;28;20473;-91
2022/01/03 14:48:21;;;;;;;6.67;1.43;;;;;;;;;;5092535;28;20079;-91
2022/01/03 14:50:46;;;;;;;;;;;;;;;;;;5054536;28;20027;-91
2022/01/03 14:53:12;;;;;;;5.00;1.10;;;;;;;;;;5091264;28;20003;-91
2022/01/03 14:55:39;;;;;;;5.57;1.20;;;;;;;;;;5074496;28;20503;-90
2022/01/03 14:58:05;;;;;;;4.23;0.90;;;;;;;;;;5076211;28;20031;-91